메인 페이지
METAR-TAF:

METAR-TAF

공항 :

애니스턴, 앨라배마, 미국

위도: 33-35-26N, 경도: 085-50-51W, 고도: 186m

현재 날씨관측

예보는 19분 전, 01:53시(UTC)에 발표되었습니다.
서북서11kt, 순간 최대 풍속 21kt
온도 6°C
습도 52%
기압 1019 hPa
시정: 16.1km
고도 3400ft 상공 구름 많음
고도 4100ft 상공 구름 많음
고도 5000ft 상공 흐림

METAR: KANB 270153Z AUTO 30011G21KT 10SM BKN034 BKN041 OVC050 06/M03 A3010 RMK AO2 SLP200 T00561028

시각: 20:12 (02:12 UTC)

예보

예보는 34분 전, 01:38시(UTC)에 발표되었습니다.
예보 대상 시간: 27일 02시부터 27일 24시까지 (UTC)
서북서8kt, 순간 최대 풍속 18kt
시정: 10km
고도 3500ft 상공 구름 많음
고도 5000ft 상공 흐림
일시적
27일 07시부터 27일 11시까지 (UTC)
고도 2500ft 상공 구름 많음
27일 1500시부터 (UTC)
북서9kt
시정: 10km
고도 25000ft 상공 구름 조금

TAF: KANB 270138Z 2702/2724 30008G18KT P6SM BKN035 OVC050 TEMPO 2707/2711 BKN025 FM271500 31009KT P6SM FEW250

4,000개 이상의 공항 관측 자료 및 예보 (METAR 및 TAF 보고).

지도상에서 검색 가능한 기상관측소가 노란 점과 빨간 점으로 표시되어 있습니다.

기상관측소 명을 보려면 표시 위로 마우스를 이동하세요.

날씨 관측과 예보를 보려면 클릭하세요.

지도 변경 : 확대하려면 엑스 표시가 있는 녹색 버튼, 축소하려면 빼기 표시가 있는 녹색 버튼, 다음 페이지의 지도를 보려면 녹색 화살표를 클릭하세요.


METAR-TAF: